Metar z pełnej godziny Komunikat METAR ze strony awiacja.imgw.pl Metar G00 EPWA METAR EPWA 200400Z 27010KT 9999 FEW018 05/03 Q1013 NOSIG=